Time;durP1;ratioP1;P1;durP2;ratioP2;P2;SDS_P1;SDS_P2;PMS_P1;PMS_P2;Temp;Humidity;BMP_temperature;BMP_pressure;BME280_temperature;BME280_humidity;BME280_pressure;Samples;Min_cycle;Max_cycle;Signal;HPM_P1;HPM_P2
2021/04/17 00:00:34;;;;;;;;;;;7.20;53.40;;;;;;5031964;28;20415;-70
2021/04/17 00:02:59;;;;;;;;;;;7.20;53.60;;;;;;5034752;28;19911;-69
2021/04/17 00:05:25;;;;;;;;;;;7.10;54.60;;;;;;5036119;28;19999;-70
2021/04/17 00:07:51;;;;;;;;;;;7.20;53.50;;;;;;5036008;28;19959;-69
2021/04/17 00:10:16;;;;;;;;;;;7.10;53.50;;;;;;5035822;28;19912;-69
2021/04/17 00:12:42;;;;;;;;;;;7.10;53.60;;;;;;5034739;28;20316;-69
2021/04/17 00:15:08;;;;;;;;;;;7.10;53.70;;;;;;5035387;28;19905;-69
2021/04/17 00:17:34;;;;;;;;;;;7.00;53.90;;;;;;5035956;28;19919;-69
2021/04/17 00:20:00;;;;;;;;;;;7.00;54.00;;;;;;5035904;28;20280;-69
2021/04/17 00:22:25;;;;;;;;;;;7.00;53.70;;;;;;5034616;28;19905;-69
2021/04/17 00:24:51;;;;;;;;;;;7.00;53.50;;;;;;5035851;28;19909;-69
2021/04/17 00:27:17;;;;;;;;;;;7.00;54.00;;;;;;5034395;28;20032;-69
2021/04/17 00:29:42;;;;;;;;;;;7.00;54.10;;;;;;5035436;28;19905;-69
2021/04/17 00:32:08;;;;;;;;;;;7.00;54.00;;;;;;5035200;28;19905;-69
2021/04/17 00:34:34;;;;;;;;;;;7.00;54.20;;;;;;5035648;28;19905;-69
2021/04/17 00:36:59;;;;;;;;;;;6.90;53.90;;;;;;5028703;28;19912;-70
2021/04/17 00:39:25;;;;;;;;;;;6.90;54.10;;;;;;5035496;28;19954;-69
2021/04/17 00:41:51;;;;;;;;;;;6.90;54.10;;;;;;5035468;28;20372;-69
2021/04/17 00:44:16;;;;;;;;;;;6.90;54.20;;;;;;5035190;28;20012;-70
2021/04/17 00:46:42;;;;;;;;;;;6.90;54.10;;;;;;5033883;28;19955;-69
2021/04/17 00:49:09;;;;;;;;;;;6.90;54.50;;;;;;5033714;28;19999;-69
2021/04/17 00:51:35;;;;;;;;;;;6.80;54.30;;;;;;5034176;28;20416;-69
2021/04/17 00:54:01;;;;;;;;;;;6.80;54.30;;;;;;5035302;28;19963;-69
2021/04/17 00:56:26;;;;;;;;;;;6.80;54.20;;;;;;5035148;28;20364;-69
2021/04/17 00:58:52;;;;;;;;;;;6.80;54.30;;;;;;5024556;28;20285;-69
2021/04/17 01:01:19;;;;;;;;;;;6.80;54.50;;;;;;5029726;28;19955;-70
2021/04/17 01:03:44;;;;;;;;;;;6.70;54.80;;;;;;5033230;28;19909;-70
2021/04/17 01:06:14;;;;;;;;;;;6.70;54.90;;;;;;5034754;28;20478;-70
2021/04/17 01:08:59;;;;;;;;;;;6.60;55.00;;;;;;5035156;28;20261;-69
2021/04/17 01:11:27;;;;;;;;;;;6.60;54.90;;;;;;5034950;28;19960;-69
2021/04/17 01:13:54;;;;;;;;;;;6.60;54.90;;;;;;5033691;28;19905;-70
2021/04/17 01:16:20;;;;;;;;;;;6.50;55.00;;;;;;5033239;28;19917;-69
2021/04/17 01:18:46;;;;;;;;;;;6.50;55.20;;;;;;5034474;28;19916;-70
2021/04/17 01:21:12;;;;;;;;;;;6.50;55.40;;;;;;5034685;28;19905;-69
2021/04/17 01:23:39;;;;;;;;;;;6.50;54.50;;;;;;5035042;28;19905;-69
2021/04/17 01:26:13;;;;;;;;;;;6.50;55.10;;;;;;5034616;28;19992;-69
2021/04/17 01:28:41;;;;;;;;;;;6.50;55.40;;;;;;5033433;28;19912;-69
2021/04/17 01:31:08;;;;;;;;;;;6.40;55.10;;;;;;5034208;28;19987;-69
2021/04/17 01:33:35;;;;;;;;;;;6.40;55.90;;;;;;5034688;28;19909;-70
2021/04/17 01:36:04;;;;;;;;;;;6.40;55.30;;;;;;5034115;28;19917;-70
2021/04/17 01:38:47;;;;;;;;;;;6.40;55.70;;;;;;5034506;28;19956;-70
2021/04/17 01:41:14;;;;;;;;;;;6.40;55.40;;;;;;5032725;28;19994;-69
2021/04/17 01:43:41;;;;;;;;;;;6.40;55.30;;;;;;5033263;28;19912;-70
2021/04/17 01:46:10;;;;;;;;;;;6.40;55.00;;;;;;5034025;28;19905;-69
2021/04/17 01:48:37;;;;;;;;;;;6.40;54.70;;;;;;5034355;28;19912;-69
2021/04/17 01:51:03;;;;;;;;;;;6.50;55.00;;;;;;5032568;28;20392;-70
2021/04/17 01:53:30;;;;;;;;;;;6.40;55.40;;;;;;5034114;28;19936;-70
2021/04/17 01:55:57;;;;;;;;;;;6.40;55.80;;;;;;5033774;28;19905;-69
2021/04/17 01:58:24;;;;;;;;;;;6.40;55.80;;;;;;5026534;28;20286;-69
2021/04/17 02:00:51;;;;;;;;;;;6.40;55.90;;;;;;5026887;28;19909;-69
2021/04/17 02:03:16;;;;;;;;;;;6.30;56.00;;;;;;5033662;28;19905;-69
2021/04/17 02:05:42;;;;;;;;;;;6.30;56.10;;;;;;5033798;28;19905;-69
2021/04/17 02:08:07;;;;;;;;;;;6.20;56.30;;;;;;5033941;28;19996;-69
2021/04/17 02:10:33;;;;;;;;;;;6.20;56.30;;;;;;5033662;28;19988;-69
2021/04/17 02:12:58;;;;;;;;;;;6.20;56.10;;;;;;5033759;28;20039;-69
2021/04/17 02:15:26;;;;;;;;;;;6.20;56.50;;;;;;5031634;28;19992;-69
2021/04/17 02:17:59;;;;;;;;;;;6.20;56.90;;;;;;5031984;28;20269;-70
2021/04/17 02:20:32;;;;;;;;;;;6.10;56.80;;;;;;5031510;28;20365;-70
2021/04/17 02:22:57;;;;;;;;;;;6.20;56.90;;;;;;5032081;28;19970;-69
2021/04/17 02:25:23;;;;;;;;;;;6.10;56.40;;;;;;5032802;28;20321;-70
2021/04/17 02:27:49;;;;;;;;;;;6.20;57.10;;;;;;5033081;28;19928;-70
2021/04/17 02:30:15;;;;;;;;;;;6.10;56.90;;;;;;5031913;28;19924;-69
2021/04/17 02:32:40;;;;;;;;;;;6.10;57.00;;;;;;5033062;28;20335;-70
2021/04/17 02:35:06;;;;;;;;;;;6.10;57.30;;;;;;5029442;28;19905;-70
2021/04/17 02:37:32;;;;;;;;;;;6.00;57.60;;;;;;5029401;28;21075;-70
2021/04/17 02:39:57;;;;;;;;;;;6.00;57.70;;;;;;5014075;28;20366;-69
2021/04/17 02:42:23;;;;;;;;;;;6.00;57.70;;;;;;5014985;28;20420;-70
2021/04/17 02:44:48;;;;;;;;;;;6.00;57.40;;;;;;5023525;28;20388;-70
2021/04/17 02:47:14;;;;;;;;;;;6.00;57.50;;;;;;5020916;28;19940;-69
2021/04/17 02:49:40;;;;;;;;;;;6.00;58.00;;;;;;5001375;28;19948;-69
2021/04/17 02:52:05;;;;;;;;;;;6.00;58.20;;;;;;5032893;28;20353;-70
2021/04/17 02:54:31;;;;;;;;;;;5.90;58.20;;;;;;5031376;28;19905;-69
2021/04/17 02:56:56;;;;;;;;;;;5.90;58.20;;;;;;5027162;28;19996;-69
2021/04/17 02:59:22;;;;;;;;;;;5.90;58.20;;;;;;5016764;28;20377;-70
2021/04/17 03:01:48;;;;;;;;;;;5.90;58.20;;;;;;5027182;28;19955;-70
2021/04/17 03:04:14;;;;;;;;;;;5.90;58.50;;;;;;5033106;28;19909;-77
2021/04/17 03:06:39;;;;;;;;;;;5.80;58.80;;;;;;5032705;28;19909;-77
2021/04/17 03:09:05;;;;;;;;;;;5.80;59.00;;;;;;5032631;28;19940;-77
2021/04/17 03:11:30;;;;;;;;;;;5.80;58.90;;;;;;5032694;28;20336;-77
2021/04/17 03:13:57;;;;;;;;;;;5.80;58.80;;;;;;5029319;28;20324;-77
2021/04/17 03:16:22;;;;;;;;;;;5.90;59.00;;;;;;5012773;28;19964;-77
2021/04/17 03:18:48;;;;;;;;;;;5.80;58.80;;;;;;5012629;28;19909;-78
2021/04/17 03:21:13;;;;;;;;;;;5.90;58.70;;;;;;5031384;28;19915;-77
2021/04/17 03:23:39;;;;;;;;;;;5.90;59.00;;;;;;5011433;28;19959;-77
2021/04/17 03:26:05;;;;;;;;;;;5.90;58.40;;;;;;5030535;28;19920;-77
2021/04/17 03:28:30;;;;;;;;;;;5.90;58.70;;;;;;5032418;28;19909;-77
2021/04/17 03:30:56;;;;;;;;;;;5.90;58.80;;;;;;5032376;28;19912;-77
2021/04/17 03:33:21;;;;;;;;;;;5.80;59.10;;;;;;5032194;28;19909;-77
2021/04/17 03:35:47;;;;;;;;;;;5.80;59.00;;;;;;5024148;28;19913;-78
2021/04/17 03:38:13;;;;;;;;;;;5.80;58.80;;;;;;5031745;28;19991;-77
2021/04/17 03:40:38;;;;;;;;;;;5.80;59.10;;;;;;5032310;28;19964;-77
2021/04/17 03:43:04;;;;;;;;;;;5.80;59.40;;;;;;5032161;28;19909;-77
2021/04/17 03:45:30;;;;;;;;;;;5.70;58.60;;;;;;5032671;28;19909;-77
2021/04/17 03:47:55;;;;;;;;;;;5.70;59.40;;;;;;5032108;28;20369;-77
2021/04/17 03:50:21;;;;;;;;;;;5.60;59.80;;;;;;5032393;28;19905;-78
2021/04/17 03:52:47;;;;;;;;;;;5.50;60.40;;;;;;5030559;28;19905;-77
2021/04/17 03:55:13;;;;;;;;;;;5.50;60.50;;;;;;5032095;28;19905;-77
2021/04/17 03:57:39;;;;;;;;;;;5.40;60.70;;;;;;5031853;28;19955;-77
2021/04/17 04:00:06;;;;;;;;;;;5.40;61.50;;;;;;5032023;28;20293;-77
2021/04/17 04:02:31;;;;;;;;;;;5.30;61.70;;;;;;5032138;28;19905;-77
2021/04/17 04:04:57;;;;;;;;;;;5.20;62.10;;;;;;5032213;28;19911;-78
2021/04/17 04:07:23;;;;;;;;;;;5.10;62.40;;;;;;5030431;28;19905;-78
2021/04/17 04:09:48;;;;;;;;;;;5.20;62.20;;;;;;5031958;28;20323;-78
2021/04/17 04:12:14;;;;;;;;;;;5.20;62.50;;;;;;5032274;28;19913;-77
2021/04/17 04:14:40;;;;;;;;;;;5.20;62.00;;;;;;5032153;28;19911;-78
2021/04/17 04:17:06;;;;;;;;;;;5.20;62.50;;;;;;5030352;28;19917;-77
2021/04/17 04:19:31;;;;;;;;;;;5.20;62.00;;;;;;5032051;28;19909;-77
2021/04/17 04:21:57;;;;;;;;;;;5.20;62.20;;;;;;5031652;28;20384;-77
2021/04/17 04:24:23;;;;;;;;;;;5.20;62.60;;;;;;5031909;28;19997;-77
2021/04/17 04:26:48;;;;;;;;;;;5.20;62.80;;;;;;5031959;28;19905;-77
2021/04/17 04:29:14;;;;;;;;;;;5.20;61.50;;;;;;5031985;28;20373;-77
2021/04/17 04:31:40;;;;;;;;;;;5.30;63.10;;;;;;5031894;28;19995;-77
2021/04/17 04:34:05;;;;;;;;;;;5.20;62.80;;;;;;5030762;28;19905;-77
2021/04/17 04:36:31;;;;;;;;;;;5.20;62.80;;;;;;5031407;28;19905;-78
2021/04/17 04:38:56;;;;;;;;;;;5.20;62.90;;;;;;5030156;28;19916;-77
2021/04/17 04:41:22;;;;;;;;;;;5.10;63.40;;;;;;5032027;28;20702;-78
2021/04/17 04:43:48;;;;;;;;;;;5.10;63.60;;;;;;5031808;28;19905;-79
2021/04/17 04:46:13;;;;;;;;;;;5.10;63.60;;;;;;5031795;28;20180;-78
2021/04/17 04:48:39;;;;;;;;;;;4.90;64.00;;;;;;5033770;28;19909;-77
2021/04/17 04:51:04;;;;;;;;;;;4.80;63.80;;;;;;5035318;28;19973;-77
2021/04/17 04:53:30;;;;;;;;;;;4.60;64.40;;;;;;5034935;28;19954;-77
2021/04/17 04:55:56;;;;;;;;;;;4.50;65.00;;;;;;5034731;28;19912;-77
2021/04/17 04:58:21;;;;;;;;;;;4.50;65.50;;;;;;5032713;28;19947;-77
2021/04/17 05:00:47;;;;;;;;;;;4.50;65.80;;;;;;5035286;28;19909;-77
2021/04/17 05:03:12;;;;;;;;;;;4.40;66.10;;;;;;5033867;28;19919;-77
2021/04/17 05:05:38;;;;;;;;;;;4.40;66.40;;;;;;5033535;28;19951;-78
2021/04/17 05:08:04;;;;;;;;;;;4.30;66.80;;;;;;5035151;28;19959;-78
2021/04/17 05:10:29;;;;;;;;;;;4.40;66.20;;;;;;5034718;28;19928;-78
2021/04/17 05:12:55;;;;;;;;;;;4.40;65.90;;;;;;5035100;28;19905;-77
2021/04/17 05:15:20;;;;;;;;;;;4.50;66.30;;;;;;5034734;28;19925;-78
2021/04/17 05:17:46;;;;;;;;;;;4.60;66.40;;;;;;5034981;28;20353;-78
2021/04/17 05:20:12;;;;;;;;;;;4.50;66.20;;;;;;5033244;28;19912;-77
2021/04/17 05:22:37;;;;;;;;;;;4.40;66.90;;;;;;5035021;28;19909;-77
2021/04/17 05:25:03;;;;;;;;;;;4.30;67.20;;;;;;5033629;28;20365;-77
2021/04/17 05:27:29;;;;;;;;;;;4.30;67.80;;;;;;5034797;28;19905;-77
2021/04/17 05:29:55;;;;;;;;;;;4.20;67.40;;;;;;5034808;28;20268;-77
2021/04/17 05:32:20;;;;;;;;;;;4.30;67.40;;;;;;5034562;28;20276;-78
2021/04/17 05:34:46;;;;;;;;;;;4.40;66.70;;;;;;5032539;28;19916;-77
2021/04/17 05:37:11;;;;;;;;;;;4.40;67.20;;;;;;5030342;28;20300;-76
2021/04/17 05:39:37;;;;;;;;;;;4.40;67.10;;;;;;5034232;28;19912;-77
2021/04/17 05:42:03;;;;;;;;;;;4.50;67.10;;;;;;5033296;28;19996;-77
2021/04/17 05:44:28;;;;;;;;;;;4.50;65.90;;;;;;5034614;28;20357;-77
2021/04/17 05:46:54;;;;;;;;;;;4.50;67.10;;;;;;5034234;28;19905;-77
2021/04/17 05:49:19;;;;;;;;;;;4.50;66.60;;;;;;5034255;28;20388;-77
2021/04/17 05:51:45;;;;;;;;;;;4.60;67.00;;;;;;5033829;28;20322;-77
2021/04/17 05:54:11;;;;;;;;;;;4.60;67.20;;;;;;5034399;28;19932;-77
2021/04/17 05:56:37;;;;;;;;;;;4.70;67.00;;;;;;5033676;28;20269;-77
2021/04/17 05:59:03;;;;;;;;;;;4.80;66.40;;;;;;5033656;28;19913;-78
2021/04/17 06:01:29;;;;;;;;;;;4.80;66.90;;;;;;5033746;28;19936;-75
2021/04/17 06:03:54;;;;;;;;;;;4.90;66.60;;;;;;5033700;28;19948;-76
2021/04/17 06:06:20;;;;;;;;;;;4.90;67.40;;;;;;5034058;28;19931;-77
2021/04/17 06:08:46;;;;;;;;;;;5.00;67.60;;;;;;5033592;28;19905;-77
2021/04/17 06:11:11;;;;;;;;;;;5.10;67.60;;;;;;5033795;28;19908;-75
2021/04/17 06:13:37;;;;;;;;;;;5.10;67.60;;;;;;5033593;28;20373;-77
2021/04/17 06:16:05;;;;;;;;;;;5.20;67.60;;;;;;5026504;28;20484;-78
2021/04/17 06:18:31;;;;;;;;;;;5.30;67.30;;;;;;5025411;28;19924;-78
2021/04/17 06:20:56;;;;;;;;;;;5.20;67.50;;;;;;5029562;28;19905;-77
2021/04/17 06:23:22;;;;;;;;;;;5.30;67.50;;;;;;5029493;28;19939;-77
2021/04/17 06:25:48;;;;;;;;;;;5.40;67.40;;;;;;5017643;28;19924;-77
2021/04/17 06:28:13;;;;;;;;;;;5.50;67.10;;;;;;5021600;28;20415;-77
2021/04/17 06:30:40;;;;;;;;;;;5.70;66.90;;;;;;5029101;28;20393;-77
2021/04/17 06:33:05;;;;;;;;;;;5.80;66.50;;;;;;5013047;28;19996;-75
2021/04/17 06:35:31;;;;;;;;;;;6.00;66.10;;;;;;5019910;28;19998;-71
2021/04/17 06:37:57;;;;;;;;;;;6.10;65.80;;;;;;5015750;28;19948;-74
2021/04/17 06:40:22;;;;;;;;;;;6.20;65.80;;;;;;5047125;28;20349;-80
2021/04/17 06:42:50;;;;;;;;;;;6.40;65.90;;;;;;5039082;28;20019;-77
2021/04/17 06:45:19;;;;;;;;;;;6.60;64.70;;;;;;5041882;28;19905;-76
2021/04/17 06:47:44;;;;;;;;;;;7.00;64.10;;;;;;5050322;28;19915;-79
2021/04/17 06:50:11;;;;;;;;;;;7.50;63.80;;;;;;5052819;28;19997;-80
2021/04/17 06:52:37;;;;;;;;;;;8.00;62.00;;;;;;5052317;28;19905;-79
2021/04/17 06:55:04;;;;;;;;;;;8.50;61.30;;;;;;5040361;28;19909;-78
2021/04/17 06:57:30;;;;;;;;;;;9.30;59.80;;;;;;5027366;28;19911;-80
2021/04/17 06:59:56;;;;;;;;;;;9.90;57.40;;;;;;5032410;28;20003;-79
2021/04/17 07:02:21;;;;;;;;;;;10.50;56.50;;;;;;5034465;28;19909;-81
2021/04/17 07:04:48;;;;;;;;;;;11.00;53.90;;;;;;5034730;28;19912;-76
2021/04/17 07:07:14;;;;;;;;;;;11.30;52.80;;;;;;5035944;28;19940;-75
2021/04/17 07:09:39;;;;;;;;;;;11.80;53.70;;;;;;5036641;28;19943;-77
2021/04/17 07:12:05;;;;;;;;;;;12.20;55.10;;;;;;5029303;28;19912;-77
2021/04/17 07:14:41;;;;;;;;;;;12.90;54.10;;;;;;5031437;28;19916;-76
2021/04/17 07:17:07;;;;;;;;;;;13.00;48.60;;;;;;5032445;28;19921;-76
2021/04/17 07:19:41;;;;;;;;;;;13.30;48.00;;;;;;5034237;28;20007;-75
2021/04/17 07:22:13;;;;;;;;;;;13.70;45.60;;;;;;5036066;28;19905;-76
2021/04/17 07:24:38;;;;;;;;;;;13.80;46.50;;;;;;5039304;28;19909;-76
2021/04/17 07:27:04;;;;;;;;;;;13.90;44.70;;;;;;5039627;28;19916;-77
2021/04/17 07:29:38;;;;;;;;;;;14.00;45.70;;;;;;5044255;28;19901;-76
2021/04/17 07:32:04;;;;;;;;;;;14.30;45.00;;;;;;5040604;28;19905;-75
2021/04/17 07:34:30;;;;;;;;;;;14.70;43.40;;;;;;5044027;28;19905;-73
2021/04/17 07:36:58;;;;;;;;;;;14.90;42.70;;;;;;5043471;28;19981;-74
2021/04/17 07:39:31;;;;;;;;;;;15.30;42.20;;;;;;5043621;28;19913;-74
2021/04/17 07:41:58;;;;;;;;;;;15.60;41.20;;;;;;5039990;28;20237;-75
2021/04/17 07:44:53;;;;;;;;;;;15.90;40.60;;;;;;5041629;28;19905;-75
2021/04/17 07:47:31;;;;;;;;;;;16.00;40.60;;;;;;5050451;28;19908;-75
2021/04/17 07:50:04;;;;;;;;;;;16.80;39.40;;;;;;5049891;28;19943;-75
2021/04/17 07:52:33;;;;;;;;;;;17.50;37.60;;;;;;5051459;28;20349;-74
2021/04/17 07:54:59;;;;;;;;;;;17.90;36.10;;;;;;5051140;28;19939;-74
2021/04/17 07:57:54;;;;;;;;;;;18.20;36.70;;;;;;5051396;28;19992;-74
2021/04/17 08:00:20;;;;;;;;;;;18.70;37.60;;;;;;5045558;28;20323;-74
2021/04/17 08:02:47;;;;;;;;;;;19.10;34.80;;;;;;5050988;28;20284;-74
2021/04/17 08:05:13;;;;;;;;;;;18.90;33.40;;;;;;5043067;28;19909;-75
2021/04/17 08:07:39;;;;;;;;;;;18.90;35.20;;;;;;5044253;28;20292;-75
2021/04/17 08:10:06;;;;;;;;;;;19.40;33.70;;;;;;5046066;28;20368;-67
2021/04/17 08:12:33;;;;;;;;;;;19.60;33.60;;;;;;5045516;28;19966;-68
2021/04/17 08:14:59;;;;;;;;;;;19.90;33.30;;;;;;5045732;28;19905;-67
2021/04/17 08:17:25;;;;;;;;;;;20.20;34.40;;;;;;5051069;28;20326;-66
2021/04/17 08:19:56;;;;;;;;;;;20.20;31.10;;;;;;5051098;28;20361;-67
2021/04/17 08:22:21;;;;;;;;;;;20.30;31.40;;;;;;5040634;28;19964;-67
2021/04/17 08:24:47;;;;;;;;;;;20.90;29.90;;;;;;5041534;28;19908;-65
2021/04/17 08:27:12;;;;;;;;;;;21.20;29.60;;;;;;5035553;28;20011;-65
2021/04/17 08:29:41;;;;;;;;;;;21.80;28.80;;;;;;5040290;28;19915;-68
2021/04/17 08:32:07;;;;;;;;;;;21.90;30.40;;;;;;5042686;28;19915;-66
2021/04/17 08:34:32;;;;;;;;;;;22.30;28.70;;;;;;5037963;28;19913;-64
2021/04/17 08:37:07;;;;;;;;;;;22.40;30.50;;;;;;5050198;28;19905;-70
2021/04/17 08:39:35;;;;;;;;;;;23.20;26.90;;;;;;5049505;28;19909;-69
2021/04/17 08:42:01;;;;;;;;;;;23.30;26.30;;;;;;5049996;28;19905;-67
2021/04/17 08:44:26;;;;;;;;;;;22.90;27.50;;;;;;5052030;28;20272;-73
2021/04/17 08:46:52;;;;;;;;;;;22.90;27.80;;;;;;5051387;28;19913;-69
2021/04/17 08:49:25;;;;;;;;;;;22.80;28.00;;;;;;5054344;28;19908;-70
2021/04/17 08:51:51;;;;;;;;;;;22.70;26.60;;;;;;5054406;28;20372;-70
2021/04/17 08:54:18;;;;;;;;;;;22.60;27.10;;;;;;5048594;28;19909;-70
2021/04/17 08:56:47;;;;;;;;;;;23.00;26.80;;;;;;5046203;28;19909;-68
2021/04/17 08:59:13;;;;;;;;;;;23.10;27.10;;;;;;5045040;28;19917;-67
2021/04/17 09:01:42;;;;;;;;;;;24.00;26.10;;;;;;5042387;28;19904;-67
2021/04/17 09:04:09;;;;;;;;;;;24.70;25.50;;;;;;5035113;28;19908;-67
2021/04/17 09:06:34;;;;;;;20.10;10.57;;;24.70;25.80;;;;;;5049261;28;20392;-72
2021/04/17 09:09:15;;;;;;;13.90;8.82;;;24.50;25.00;;;;;;5035910;28;20048;-73
2021/04/17 09:11:41;;;;;;;;;;;25.20;24.70;;;;;;5037743;28;20448;-72
2021/04/17 09:14:26;;;;;;;24.45;9.40;;;25.50;24.00;;;;;;5036854;28;20364;-71
2021/04/17 09:16:52;;;;;;;;;;;26.00;24.70;;;;;;5039628;28;20129;-70
2021/04/17 09:19:40;;;;;;;16.17;10.55;;;26.50;23.10;;;;;;5036198;28;19913;-70
2021/04/17 09:22:31;;;;;;;17.55;11.60;;;27.50;23.20;;;;;;5038196;28;20496;-70
2021/04/17 09:24:57;;;;;;;15.55;10.20;;;27.70;21.70;;;;;;5042543;28;20021;-71
2021/04/17 09:27:33;;;;;;;13.40;8.85;;;27.90;22.10;;;;;;5043720;28;20029;-74
2021/04/17 09:30:01;;;;;;;19.27;8.85;;;28.50;23.20;;;;;;5039760;28;20026;-75
2021/04/17 09:32:44;;;;;;;12.95;8.63;;;28.80;21.00;;;;;;5040363;28;20057;-72
2021/04/17 09:35:20;;;;;;;12.65;8.23;;;29.20;20.80;;;;;;5047537;28;20021;-70
2021/04/17 09:37:48;;;;;;;15.40;7.43;;;29.90;20.10;;;;;;5039339;28;20508;-68
2021/04/17 09:40:14;;;;;;;13.70;8.30;;;29.70;21.80;;;;;;5049043;28;20025;-73
2021/04/17 09:42:41;;;;;;;13.30;7.95;;;29.90;20.70;;;;;;5051006;28;20132;-73
2021/04/17 09:45:11;;;;;;;11.15;7.55;;;29.60;19.80;;;;;;5050723;28;20025;-74
2021/04/17 09:47:57;;;;;;;11.43;7.70;;;29.20;20.70;;;;;;5050986;28;20028;-73
2021/04/17 09:50:24;;;;;;;13.48;8.18;;;29.30;20.60;;;;;;5050935;28;20104;-74
2021/04/17 09:52:51;;;;;;;13.25;8.13;;;29.10;20.10;;;;;;5052446;28;20029;-74
2021/04/17 09:55:17;;;;;;;13.32;7.70;;;28.80;20.30;;;;;;5052111;28;20024;-73
2021/04/17 09:57:47;;;;;;;11.07;7.53;;;28.30;20.40;;;;;;5038397;28;20025;-72
2021/04/17 10:00:14;;;;;;;11.85;6.85;;;28.40;19.90;;;;;;5050984;28;20492;-70
2021/04/17 10:02:43;;;;;;;12.40;7.63;;;28.70;20.20;;;;;;5045847;28;20037;-72
2021/04/17 10:05:11;;;;;;;12.38;7.15;;;28.70;19.40;;;;;;5039954;28;20025;-73
2021/04/17 10:07:47;;;;;;;11.80;8.27;;;28.90;18.60;;;;;;5034361;28;20509;-75
2021/04/17 10:10:14;;;;;;;10.80;7.60;;;28.20;18.50;;;;;;5040993;28;20029;-72
2021/04/17 10:12:53;;;;;;;13.07;8.70;;;27.90;19.40;;;;;;5035295;28;20033;-76
2021/04/17 10:15:28;;;;;;;12.65;8.60;;;27.10;19.70;;;;;;5035492;28;20405;-75
2021/04/17 10:17:56;;;;;;;13.45;8.68;;;26.40;18.90;;;;;;5035427;28;20550;-75
2021/04/17 10:20:23;;;;;;;11.77;8.25;;;25.90;20.20;;;;;;5036218;28;20091;-73
2021/04/17 10:22:57;;;;;;;13.57;8.85;;;25.30;20.50;;;;;;5036297;28;20029;-72
2021/04/17 10:25:41;;;;;;;13.32;8.65;;;25.00;20.60;;;;;;5039024;28;20131;-73
2021/04/17 10:28:19;;;;;;;12.75;8.82;;;24.70;21.00;;;;;;5033982;28;20065;-75
2021/04/17 10:30:56;;;;;;;13.55;9.02;;;24.00;20.00;;;;;;5049497;28;20028;-75
2021/04/17 10:33:24;;;;;;;15.48;10.85;;;22.80;21.10;;;;;;5049846;28;20037;-78
2021/04/17 10:35:51;;;;;;;16.75;11.38;;;21.60;23.70;;;;;;5041313;28;20090;-75
2021/04/17 10:38:24;;;;;;;18.02;14.07;;;21.20;25.20;;;;;;5043500;28;20381;-75
2021/04/17 10:40:50;;;;;;;22.73;15.73;;;21.20;25.20;;;;;;5035518;28;20029;-75
2021/04/17 10:43:18;;;;;;;17.92;11.70;;;21.50;25.20;;;;;;5034264;28;20025;-75
2021/04/17 10:45:45;;;;;;;14.48;9.73;;;22.10;24.20;;;;;;5035501;28;20056;-75
2021/04/17 10:48:21;;;;;;;14.55;9.25;;;22.20;23.50;;;;;;5051076;28;20044;-75
2021/04/17 10:51:05;;;;;;;12.48;8.52;;;21.90;23.30;;;;;;5050424;28;20036;-75
2021/04/17 10:53:37;;;;;;;13.43;9.05;;;21.60;24.60;;;;;;5051509;28;20017;-75
2021/04/17 10:56:11;;;;;;;14.07;8.98;;;21.20;24.60;;;;;;5051780;28;20063;-75
2021/04/17 10:58:37;;;;;;;15.07;9.57;;;20.50;24.10;;;;;;5049025;28;20032;-75
2021/04/17 11:01:07;;;;;;;13.75;8.98;;;19.90;25.70;;;;;;5051372;28;20066;-75
2021/04/17 11:03:44;;;;;;;13.55;9.10;;;19.40;27.20;;;;;;5030494;28;20059;-75
2021/04/17 11:06:11;;;;;;;15.10;9.27;;;19.50;28.20;;;;;;5044054;28;20025;-75
2021/04/17 11:08:37;;;;;;;13.20;8.63;;;20.10;28.00;;;;;;5051067;28;20039;-75
2021/04/17 11:11:21;;;;;;;12.40;8.13;;;20.60;26.90;;;;;;5051393;28;20028;-76
2021/04/17 11:13:55;;;;;;;12.10;8.48;;;20.80;25.80;;;;;;5038686;28;20064;-76
2021/04/17 11:16:34;;;;;;;15.63;8.60;;;20.30;25.50;;;;;;5051161;28;20049;-76
2021/04/17 11:19:00;;;;;;;13.27;8.50;;;19.50;25.50;;;;;;5051150;28;20033;-75
2021/04/17 11:21:26;;;;;;;13.55;8.50;;;19.00;26.10;;;;;;5049381;28;20033;-75
2021/04/17 11:23:54;;;;;;;15.65;9.85;;;18.90;28.00;;;;;;5051224;28;20024;-76
2021/04/17 11:26:21;;;;;;;20.05;12.93;;;18.80;28.00;;;;;;5049824;28;20031;-76
2021/04/17 11:28:52;;;;;;;14.13;10.57;;;18.60;27.70;;;;;;5049224;28;20033;-75
2021/04/17 11:31:27;;;;;;;15.00;9.70;;;18.50;27.60;;;;;;5049327;28;20040;-76
2021/04/17 11:33:55;;;;;;;12.48;8.75;;;19.00;28.70;;;;;;5049624;28;20025;-75
2021/04/17 11:36:23;;;;;;;14.23;9.88;;;19.20;27.00;;;;;;5050508;28;20029;-76
2021/04/17 11:38:50;;;;;;;14.63;8.88;;;19.20;27.30;;;;;;5048858;28;20111;-75
2021/04/17 11:41:16;;;;;;;12.65;8.10;;;19.20;27.20;;;;;;5050788;28;20031;-67
2021/04/17 11:43:42;;;;;;;17.13;8.43;;;19.40;28.10;;;;;;5049802;28;20063;-64
2021/04/17 11:46:12;;;;;;;14.35;8.48;;;19.90;28.20;;;;;;5051752;28;20029;-65
2021/04/17 11:48:43;;;;;;;12.38;7.95;;;20.00;26.80;;;;;;5043970;28;20411;-65
2021/04/17 11:51:09;;;;;;;11.98;7.53;;;20.00;27.20;;;;;;5042048;28;20653;-65
2021/04/17 11:53:37;;;;;;;10.52;7.50;;;20.30;27.60;;;;;;5030687;28;20052;-65
2021/04/17 11:56:04;;;;;;;15.93;10.52;;;20.50;27.40;;;;;;5032281;28;20039;-65
2021/04/17 11:58:30;;;;;;;13.52;9.10;;;20.80;26.80;;;;;;5034996;28;20068;-65
2021/04/17 12:00:56;;;;;;;14.75;8.90;;;20.90;26.90;;;;;;5038232;28;20073;-65
2021/04/17 12:03:22;;;;;;;17.17;11.25;;;21.00;26.80;;;;;;5043942;28;20392;-65
2021/04/17 12:05:53;;;;;;;15.80;9.55;;;20.90;25.30;;;;;;5042702;28;20460;-65
2021/04/17 12:08:20;;;;;;;12.85;8.88;;;20.40;25.60;;;;;;5036565;28;20354;-64
2021/04/17 12:10:47;;;;;;;11.82;7.65;;;19.90;26.10;;;;;;5035689;28;20493;-64
2021/04/17 12:13:13;;;;;;;11.73;7.10;;;19.40;26.30;;;;;;5035439;28;20026;-66
2021/04/17 12:15:39;;;;;;;13.70;7.95;;;19.20;27.10;;;;;;5045142;28;20432;-66
2021/04/17 12:18:06;;;;;;;14.05;8.02;;;19.20;27.70;;;;;;5032872;28;20045;-63
2021/04/17 12:20:32;;;;;;;11.15;7.47;;;19.20;28.20;;;;;;5036790;28;20040;-64
2021/04/17 12:22:57;;;;;;;11.35;6.95;;;19.40;28.00;;;;;;5036796;28;20022;-63
2021/04/17 12:25:23;;;;;;;11.98;7.47;;;19.80;28.40;;;;;;5037109;28;20101;-63
2021/04/17 12:27:50;;;;;;;12.52;7.75;;;20.00;27.50;;;;;;5039107;28;20026;-64
2021/04/17 12:30:16;;;;;;;12.60;7.15;;;20.20;27.60;;;;;;5035435;28;20037;-63
2021/04/17 12:32:43;;;;;;;11.82;7.13;;;20.20;27.80;;;;;;5035943;28;20021;-64
2021/04/17 12:35:11;;;;;;;11.38;7.43;;;19.90;26.70;;;;;;5037371;28;20416;-65
2021/04/17 12:37:38;;;;;;;11.70;7.30;;;19.40;27.40;;;;;;5038201;28;20017;-65
2021/04/17 12:40:05;;;;;;;10.93;7.07;;;19.00;27.80;;;;;;5036400;28;20120;-66
2021/04/17 12:42:30;;;;;;;12.88;7.55;;;18.60;27.70;;;;;;5050776;28;20066;-66
2021/04/17 12:44:56;;;;;;;12.23;6.93;;;18.30;28.90;;;;;;5042732;28;20029;-66
2021/04/17 12:47:22;;;;;;;12.82;8.05;;;18.10;29.50;;;;;;5035435;28;20025;-64
2021/04/17 12:49:48;;;;;;;11.15;7.32;;;17.90;29.70;;;;;;5034751;28;20029;-64
2021/04/17 12:52:13;;;;;;;10.38;7.15;;;17.60;30.00;;;;;;5035067;28;20033;-64
2021/04/17 12:54:39;;;;;;;13.15;8.20;;;17.40;30.40;;;;;;5034683;28;20029;-64
2021/04/17 12:57:05;;;;;;;13.23;8.10;;;17.10;30.60;;;;;;5035168;28;20116;-78
2021/04/17 12:59:30;;;;;;;12.63;8.23;;;16.90;31.20;;;;;;5037786;28;20037;-76
2021/04/17 13:01:56;;;;;;;12.32;8.52;;;16.80;32.60;;;;;;5043088;28;20033;-78
2021/04/17 13:04:22;;;;;;;14.18;8.05;;;16.70;31.00;;;;;;5051204;28;20152;-77
2021/04/17 13:06:48;;;;;;;13.27;8.10;;;16.80;32.00;;;;;;5049491;28;20452;-77
2021/04/17 13:09:13;;;;;;;14.82;8.40;;;16.60;32.00;;;;;;5051747;28;20033;-79
2021/04/17 13:11:39;;;;;;;13.07;7.65;;;16.60;32.80;;;;;;5049023;28;20273;-76
2021/04/17 13:14:05;;;;;;;15.27;8.18;;;16.80;32.20;;;;;;5047507;28;20033;-72
2021/04/17 13:16:31;;;;;;;13.32;8.07;;;16.80;32.40;;;;;;5039961;28;20053;-76
2021/04/17 13:18:56;;;;;;;14.40;7.35;;;17.00;32.20;;;;;;5044689;28;20381;-77
2021/04/17 13:21:22;;;;;;;12.70;8.10;;;17.00;33.10;;;;;;5040148;28;20097;-78
2021/04/17 13:23:48;;;;;;;11.20;7.90;;;17.00;31.90;;;;;;5042563;28;20043;-77
2021/04/17 13:26:16;;;;;;;13.38;7.85;;;17.10;32.60;;;;;;5042157;28;20470;-77
2021/04/17 13:28:44;;;;;;;12.00;8.13;;;17.10;32.20;;;;;;5041411;28;20092;-77
2021/04/17 13:31:09;;;;;;;12.90;8.52;;;17.20;32.50;;;;;;5042144;28;20780;-77
2021/04/17 13:33:35;;;;;;;14.20;8.60;;;17.40;32.30;;;;;;5038598;28;20416;-77
2021/04/17 13:36:01;;;;;;;14.05;8.38;;;17.60;31.10;;;;;;5044969;28;20271;-77
2021/04/17 13:38:28;;;;;;;13.68;8.05;;;17.50;31.10;;;;;;5037832;28;20132;-77
2021/04/17 13:40:53;;;;;;;13.02;7.80;;;17.60;31.60;;;;;;5043418;28;20035;-77
2021/04/17 13:43:19;;;;;;;;;;;17.80;32.20;;;;;;5041961;28;20014;-77
2021/04/17 13:45:45;;;;;;;11.38;7.80;;;18.10;31.80;;;;;;5040996;28;19992;-78
2021/04/17 13:48:10;;;;;;;13.02;7.47;;;18.10;31.00;;;;;;5052834;28;20104;-77